sensor_id;sensor_type;location;lat;lon;timestamp;pressure;altitude;pressure_sealevel;temperature;humidity
5574;BME280;2563;52.242;7.956;2022-07-03T00:01:21;100931.66;;;16.75;100.00
5574;BME280;2563;52.242;7.956;2022-07-03T00:03:46;100930.13;;;16.71;100.00
5574;BME280;2563;52.242;7.956;2022-07-03T00:06:12;100933.69;;;16.69;100.00
5574;BME280;2563;52.242;7.956;2022-07-03T00:08:37;100937.69;;;16.57;100.00
5574;BME280;2563;52.242;7.956;2022-07-03T00:11:05;100932.59;;;16.54;100.00
5574;BME280;2563;52.242;7.956;2022-07-03T00:13:30;100927.72;;;16.46;100.00
5574;BME280;2563;52.242;7.956;2022-07-03T00:15:56;100929.53;;;16.44;100.00
5574;BME280;2563;52.242;7.956;2022-07-03T00:18:21;100927.09;;;16.41;100.00
5574;BME280;2563;52.242;7.956;2022-07-03T00:20:57;100915.31;;;16.32;100.00
5574;BME280;2563;52.242;7.956;2022-07-03T00:23:24;100906.03;;;16.27;100.00
5574;BME280;2563;52.242;7.956;2022-07-03T00:25:51;100898.44;;;16.22;100.00
5574;BME280;2563;52.242;7.956;2022-07-03T00:28:19;100904.66;;;16.18;100.00
5574;BME280;2563;52.242;7.956;2022-07-03T00:30:47;100889.47;;;16.09;100.00
5574;BME280;2563;52.242;7.956;2022-07-03T00:33:14;100878.94;;;15.91;100.00
5574;BME280;2563;52.242;7.956;2022-07-03T00:35:42;100875.44;;;15.92;100.00
5574;BME280;2563;52.242;7.956;2022-07-03T00:38:07;100868.63;;;15.90;100.00
5574;BME280;2563;52.242;7.956;2022-07-03T00:40:33;100869.56;;;15.87;100.00
5574;BME280;2563;52.242;7.956;2022-07-03T00:42:59;100870.69;;;15.82;100.00
5574;BME280;2563;52.242;7.956;2022-07-03T00:45:26;100863.22;;;15.74;100.00
5574;BME280;2563;52.242;7.956;2022-07-03T00:47:51;100866.84;;;15.70;100.00
5574;BME280;2563;52.242;7.956;2022-07-03T00:50:24;100866.19;;;15.63;100.00
5574;BME280;2563;52.242;7.956;2022-07-03T00:52:50;100866.19;;;15.63;100.00
5574;BME280;2563;52.242;7.956;2022-07-03T00:55:17;100862.84;;;15.61;100.00
5574;BME280;2563;52.242;7.956;2022-07-03T00:57:45;100865.50;;;15.60;100.00
5574;BME280;2563;52.242;7.956;2022-07-03T01:00:15;100865.81;;;15.52;100.00
5574;BME280;2563;52.242;7.956;2022-07-03T01:05:34;100855.84;;;15.41;100.00
5574;BME280;2563;52.242;7.956;2022-07-03T01:18:44;100850.25;;;15.30;100.00
5574;BME280;2563;52.242;7.956;2022-07-03T01:26:39;100847.41;;;15.36;100.00
5574;BME280;2563;52.242;7.956;2022-07-03T01:29:08;100843.03;;;15.37;100.00
5574;BME280;2563;52.242;7.956;2022-07-03T01:31:38;100840.41;;;15.38;100.00
5574;BME280;2563;52.242;7.956;2022-07-03T01:34:12;100831.69;;;15.39;100.00
5574;BME280;2563;52.242;7.956;2022-07-03T01:36:43;100829.09;;;15.39;100.00
5574;BME280;2563;52.242;7.956;2022-07-03T01:39:10;100831.84;;;15.36;100.00
5574;BME280;2563;52.242;7.956;2022-07-03T01:41:36;100827.78;;;15.29;100.00
5574;BME280;2563;52.242;7.956;2022-07-03T01:44:03;100828.94;;;15.22;100.00
5574;BME280;2563;52.242;7.956;2022-07-03T01:46:32;100816.41;;;15.11;100.00
5574;BME280;2563;52.242;7.956;2022-07-03T01:48:59;100813.06;;;15.07;100.00
5574;BME280;2563;52.242;7.956;2022-07-03T01:51:26;100807.94;;;15.06;100.00
5574;BME280;2563;52.242;7.956;2022-07-03T01:53:52;100809.16;;;14.97;100.00
5574;BME280;2563;52.242;7.956;2022-07-03T01:56:20;100801.53;;;14.93;100.00
5574;BME280;2563;52.242;7.956;2022-07-03T01:58:46;100806.91;;;14.88;100.00
5574;BME280;2563;52.242;7.956;2022-07-03T02:04:54;100790.44;;;14.89;100.00
5574;BME280;2563;52.242;7.956;2022-07-03T02:07:18;100791.66;;;14.80;100.00
5574;BME280;2563;52.242;7.956;2022-07-03T02:10:06;100790.97;;;14.75;100.00
5574;BME280;2563;52.242;7.956;2022-07-03T02:12:52;100788.50;;;14.72;100.00
5574;BME280;2563;52.242;7.956;2022-07-03T02:15:34;100796.34;;;14.71;100.00
5574;BME280;2563;52.242;7.956;2022-07-03T02:18:36;100798.34;;;14.62;100.00
5574;BME280;2563;52.242;7.956;2022-07-03T02:23:32;100786.59;;;14.54;100.00
5574;BME280;2563;52.242;7.956;2022-07-03T02:26:02;100785.78;;;14.52;100.00
5574;BME280;2563;52.242;7.956;2022-07-03T02:30:56;100779.84;;;14.48;100.00
5574;BME280;2563;52.242;7.956;2022-07-03T02:33:25;100773.84;;;14.47;100.00
5574;BME280;2563;52.242;7.956;2022-07-03T02:35:55;100770.53;;;14.44;100.00
5574;BME280;2563;52.242;7.956;2022-07-03T02:38:23;100764.56;;;14.42;100.00
5574;BME280;2563;52.242;7.956;2022-07-03T02:40:57;100769.94;;;14.36;100.00
5574;BME280;2563;52.242;7.956;2022-07-03T02:43:44;100776.25;;;14.29;100.00
5574;BME280;2563;52.242;7.956;2022-07-03T02:54:55;100768.06;;;14.16;100.00
5574;BME280;2563;52.242;7.956;2022-07-03T02:57:22;100772.63;;;14.09;100.00
5574;BME280;2563;52.242;7.956;2022-07-03T02:59:54;100770.94;;;14.08;100.00
5574;BME280;2563;52.242;7.956;2022-07-03T03:05:03;100764.13;;;14.06;100.00
5574;BME280;2563;52.242;7.956;2022-07-03T03:07:35;100760.78;;;14.02;100.00
5574;BME280;2563;52.242;7.956;2022-07-03T03:10:08;100761.03;;;13.96;100.00
5574;BME280;2563;52.242;7.956;2022-07-03T03:12:37;100763.25;;;13.81;100.00
5574;BME280;2563;52.242;7.956;2022-07-03T03:15:04;100757.19;;;13.81;100.00
5574;BME280;2563;52.242;7.956;2022-07-03T03:17:43;100753.78;;;13.80;100.00
5574;BME280;2563;52.242;7.956;2022-07-03T03:20:15;100754.88;;;13.73;100.00
5574;BME280;2563;52.242;7.956;2022-07-03T03:25:13;100756.59;;;13.74;100.00
5574;BME280;2563;52.242;7.956;2022-07-03T03:27:38;100758.13;;;13.80;100.00
5574;BME280;2563;52.242;7.956;2022-07-03T03:30:04;100751.97;;;13.82;100.00
5574;BME280;2563;52.242;7.956;2022-07-03T03:32:34;100750.22;;;13.83;100.00
5574;BME280;2563;52.242;7.956;2022-07-03T03:35:01;100754.56;;;13.82;100.00
5574;BME280;2563;52.242;7.956;2022-07-03T03:37:26;100749.25;;;13.87;100.00
5574;BME280;2563;52.242;7.956;2022-07-03T03:39:52;100745.69;;;13.90;100.00
5574;BME280;2563;52.242;7.956;2022-07-03T03:42:17;100752.47;;;13.94;100.00
5574;BME280;2563;52.242;7.956;2022-07-03T03:44:42;100753.19;;;13.97;100.00
5574;BME280;2563;52.242;7.956;2022-07-03T03:47:09;100746.94;;;14.03;100.00
5574;BME280;2563;52.242;7.956;2022-07-03T03:49:35;100739.88;;;14.08;100.00
5574;BME280;2563;52.242;7.956;2022-07-03T03:52:00;100744.78;;;14.16;100.00
5574;BME280;2563;52.242;7.956;2022-07-03T03:54:26;100742.69;;;14.25;100.00
5574;BME280;2563;52.242;7.956;2022-07-03T03:56:51;100740.66;;;14.34;100.00
5574;BME280;2563;52.242;7.956;2022-07-03T03:59:17;100745.50;;;14.43;100.00
5574;BME280;2563;52.242;7.956;2022-07-03T04:01:42;100736.44;;;14.56;100.00
5574;BME280;2563;52.242;7.956;2022-07-03T04:04:07;100731.91;;;14.61;100.00
5574;BME280;2563;52.242;7.956;2022-07-03T04:06:33;100734.25;;;14.67;100.00
5574;BME280;2563;52.242;7.956;2022-07-03T04:08:58;100739.44;;;14.67;100.00
5574;BME280;2563;52.242;7.956;2022-07-03T04:11:23;100735.69;;;14.75;100.00
5574;BME280;2563;52.242;7.956;2022-07-03T04:13:49;100739.75;;;14.82;100.00
5574;BME280;2563;52.242;7.956;2022-07-03T04:16:14;100739.03;;;15.00;100.00
5574;BME280;2563;52.242;7.956;2022-07-03T04:18:39;100721.63;;;16.27;100.00
5574;BME280;2563;52.242;7.956;2022-07-03T04:21:05;100732.22;;;16.98;100.00
5574;BME280;2563;52.242;7.956;2022-07-03T04:23:30;100736.06;;;16.70;100.00
5574;BME280;2563;52.242;7.956;2022-07-03T04:26:01;100747.75;;;16.03;100.00
5574;BME280;2563;52.242;7.956;2022-07-03T04:28:27;100747.75;;;16.03;100.00
5574;BME280;2563;52.242;7.956;2022-07-03T04:30:52;100749.22;;;17.22;100.00
5574;BME280;2563;52.242;7.956;2022-07-03T04:33:18;100751.66;;;17.95;100.00
5574;BME280;2563;52.242;7.956;2022-07-03T04:35:43;100755.34;;;18.09;100.00
5574;BME280;2563;52.242;7.956;2022-07-03T04:38:08;100760.59;;;18.40;100.00
5574;BME280;2563;52.242;7.956;2022-07-03T04:40:34;100774.41;;;18.42;100.00
5574;BME280;2563;52.242;7.956;2022-07-03T04:42:59;100787.34;;;18.44;100.00
5574;BME280;2563;52.242;7.956;2022-07-03T04:45:24;100792.53;;;18.28;100.00
5574;BME280;2563;52.242;7.956;2022-07-03T04:47:50;100799.03;;;18.19;100.00
5574;BME280;2563;52.242;7.956;2022-07-03T04:50:15;100811.94;;;18.22;100.00
5574;BME280;2563;52.242;7.956;2022-07-03T04:52:40;100815.28;;;17.91;100.00
5574;BME280;2563;52.242;7.956;2022-07-03T04:55:06;100816.91;;;17.57;100.00
5574;BME280;2563;52.242;7.956;2022-07-03T04:57:32;100817.59;;;17.43;100.00
5574;BME280;2563;52.242;7.956;2022-07-03T04:59:58;100824.94;;;17.16;100.00
5574;BME280;2563;52.242;7.956;2022-07-03T05:02:23;100817.81;;;17.03;100.00
5574;BME280;2563;52.242;7.956;2022-07-03T05:04:48;100823.69;;;17.06;100.00
5574;BME280;2563;52.242;7.956;2022-07-03T05:07:14;100823.06;;;17.01;100.00
5574;BME280;2563;52.242;7.956;2022-07-03T05:09:39;100815.63;;;17.12;100.00
5574;BME280;2563;52.242;7.956;2022-07-03T05:12:05;100814.03;;;17.27;100.00
5574;BME280;2563;52.242;7.956;2022-07-03T05:14:30;100813.16;;;17.46;100.00
5574;BME280;2563;52.242;7.956;2022-07-03T05:16:56;100817.06;;;17.72;100.00
5574;BME280;2563;52.242;7.956;2022-07-03T05:19:21;100810.94;;;18.07;100.00
5574;BME280;2563;52.242;7.956;2022-07-03T05:21:46;100810.44;;;18.01;100.00
5574;BME280;2563;52.242;7.956;2022-07-03T05:24:12;100810.00;;;18.26;100.00
5574;BME280;2563;52.242;7.956;2022-07-03T05:26:37;100821.97;;;18.30;100.00
5574;BME280;2563;52.242;7.956;2022-07-03T05:29:02;100829.00;;;18.28;100.00
5574;BME280;2563;52.242;7.956;2022-07-03T05:31:28;100824.50;;;18.47;100.00
5574;BME280;2563;52.242;7.956;2022-07-03T05:33:53;100830.44;;;18.67;100.00
5574;BME280;2563;52.242;7.956;2022-07-03T05:36:18;100829.06;;;18.60;100.00
5574;BME280;2563;52.242;7.956;2022-07-03T05:38:44;100838.47;;;18.46;100.00
5574;BME280;2563;52.242;7.956;2022-07-03T05:41:27;100829.06;;;18.60;100.00
5574;BME280;2563;52.242;7.956;2022-07-03T05:43:53;100837.22;;;19.03;100.00
5574;BME280;2563;52.242;7.956;2022-07-03T05:46:18;100825.72;;;19.53;100.00
5574;BME280;2563;52.242;7.956;2022-07-03T05:48:43;100838.69;;;19.85;100.00
5574;BME280;2563;52.242;7.956;2022-07-03T05:51:09;100837.28;;;20.09;100.00
5574;BME280;2563;52.242;7.956;2022-07-03T05:53:34;100845.91;;;20.40;100.00
5574;BME280;2563;52.242;7.956;2022-07-03T05:55:59;100859.31;;;20.34;100.00
5574;BME280;2563;52.242;7.956;2022-07-03T05:58:25;100869.78;;;20.34;100.00
5574;BME280;2563;52.242;7.956;2022-07-03T06:00:50;100877.75;;;20.61;100.00
5574;BME280;2563;52.242;7.956;2022-07-03T06:03:15;100881.41;;;20.73;100.00
5574;BME280;2563;52.242;7.956;2022-07-03T06:05:41;100898.94;;;20.99;100.00
5574;BME280;2563;52.242;7.956;2022-07-03T06:08:06;100907.09;;;21.36;100.00
5574;BME280;2563;52.242;7.956;2022-07-03T06:10:32;100908.47;;;21.56;100.00
5574;BME280;2563;52.242;7.956;2022-07-03T06:12:58;100915.97;;;21.75;100.00
5574;BME280;2563;52.242;7.956;2022-07-03T06:15:23;100920.25;;;22.16;100.00
5574;BME280;2563;52.242;7.956;2022-07-03T06:17:48;100928.94;;;22.44;100.00
5574;BME280;2563;52.242;7.956;2022-07-03T06:20:14;100922.63;;;22.59;100.00
5574;BME280;2563;52.242;7.956;2022-07-03T06:22:39;100926.91;;;22.86;100.00
5574;BME280;2563;52.242;7.956;2022-07-03T06:25:08;100921.53;;;23.13;100.00
5574;BME280;2563;52.242;7.956;2022-07-03T06:27:33;100923.94;;;23.16;100.00
5574;BME280;2563;52.242;7.956;2022-07-03T06:29:59;100919.38;;;23.31;100.00
5574;BME280;2563;52.242;7.956;2022-07-03T06:32:25;100922.13;;;23.53;100.00
5574;BME280;2563;52.242;7.956;2022-07-03T06:34:50;100922.56;;;23.47;100.00
5574;BME280;2563;52.242;7.956;2022-07-03T06:37:15;100931.00;;;23.40;100.00
5574;BME280;2563;52.242;7.956;2022-07-03T06:39:41;100933.13;;;23.34;100.00
5574;BME280;2563;52.242;7.956;2022-07-03T06:42:06;100936.94;;;23.30;100.00
5574;BME280;2563;52.242;7.956;2022-07-03T06:44:32;100935.47;;;23.26;100.00
5574;BME280;2563;52.242;7.956;2022-07-03T06:46:57;100939.69;;;23.16;100.00
5574;BME280;2563;52.242;7.956;2022-07-03T06:49:23;100941.81;;;23.11;100.00
5574;BME280;2563;52.242;7.956;2022-07-03T06:51:49;100937.63;;;23.08;100.00
5574;BME280;2563;52.242;7.956;2022-07-03T06:54:15;100925.41;;;23.20;100.00
5574;BME280;2563;52.242;7.956;2022-07-03T06:56:40;100931.50;;;23.21;100.00
5574;BME280;2563;52.242;7.956;2022-07-03T06:59:07;100934.13;;;23.21;100.00
5574;BME280;2563;52.242;7.956;2022-07-03T07:01:33;100933.97;;;23.35;100.00
5574;BME280;2563;52.242;7.956;2022-07-03T07:03:58;100942.75;;;23.47;100.00
5574;BME280;2563;52.242;7.956;2022-07-03T07:06:24;100945.38;;;23.23;100.00
5574;BME280;2563;52.242;7.956;2022-07-03T07:08:49;100942.50;;;23.26;100.00
5574;BME280;2563;52.242;7.956;2022-07-03T07:11:14;100943.81;;;23.44;100.00
5574;BME280;2563;52.242;7.956;2022-07-03T07:13:40;100940.25;;;23.45;100.00
5574;BME280;2563;52.242;7.956;2022-07-03T07:16:05;100937.28;;;23.50;100.00
5574;BME280;2563;52.242;7.956;2022-07-03T07:18:31;100943.28;;;23.39;100.00
5574;BME280;2563;52.242;7.956;2022-07-03T07:20:56;100933.25;;;23.57;100.00
5574;BME280;2563;52.242;7.956;2022-07-03T07:23:22;100940.56;;;23.65;100.00
5574;BME280;2563;52.242;7.956;2022-07-03T07:25:47;100941.16;;;23.81;100.00
5574;BME280;2563;52.242;7.956;2022-07-03T07:28:12;100947.69;;;23.99;100.00
5574;BME280;2563;52.242;7.956;2022-07-03T07:30:40;100949.22;;;23.91;100.00
5574;BME280;2563;52.242;7.956;2022-07-03T07:33:09;100942.50;;;23.87;100.00
5574;BME280;2563;52.242;7.956;2022-07-03T07:35:35;100943.72;;;23.94;100.00
5574;BME280;2563;52.242;7.956;2022-07-03T07:38:00;100957.41;;;24.10;100.00
5574;BME280;2563;52.242;7.956;2022-07-03T07:40:26;100959.28;;;24.44;100.00
5574;BME280;2563;52.242;7.956;2022-07-03T07:42:51;100958.25;;;24.46;100.00
5574;BME280;2563;52.242;7.956;2022-07-03T07:45:16;100961.47;;;24.61;100.00
5574;BME280;2563;52.242;7.956;2022-07-03T07:47:42;100953.97;;;24.79;100.00
5574;BME280;2563;52.242;7.956;2022-07-03T07:50:08;100959.59;;;24.86;100.00
5574;BME280;2563;52.242;7.956;2022-07-03T07:52:33;100959.59;;;24.97;100.00
5574;BME280;2563;52.242;7.956;2022-07-03T07:54:58;100959.81;;;24.82;100.00
5574;BME280;2563;52.242;7.956;2022-07-03T07:57:24;100955.75;;;24.90;100.00
5574;BME280;2563;52.242;7.956;2022-07-03T07:59:49;100963.91;;;24.98;100.00
5574;BME280;2563;52.242;7.956;2022-07-03T08:02:14;100958.91;;;25.17;100.00
5574;BME280;2563;52.242;7.956;2022-07-03T08:04:58;100956.84;;;25.10;100.00
5574;BME280;2563;52.242;7.956;2022-07-03T08:07:42;100953.09;;;25.35;100.00
5574;BME280;2563;52.242;7.956;2022-07-03T08:10:08;100956.00;;;25.32;100.00
5574;BME280;2563;52.242;7.956;2022-07-03T08:12:33;100950.91;;;25.51;100.00
5574;BME280;2563;52.242;7.956;2022-07-03T08:14:58;100949.94;;;25.52;100.00
5574;BME280;2563;52.242;7.956;2022-07-03T08:17:24;100951.09;;;25.71;100.00
5574;BME280;2563;52.242;7.956;2022-07-03T08:19:49;100946.03;;;25.79;100.00
5574;BME280;2563;52.242;7.956;2022-07-03T08:22:14;100953.69;;;26.14;100.00
5574;BME280;2563;52.242;7.956;2022-07-03T08:24:40;100952.53;;;26.28;100.00
5574;BME280;2563;52.242;7.956;2022-07-03T08:27:05;100952.25;;;26.73;100.00
5574;BME280;2563;52.242;7.956;2022-07-03T08:29:31;100952.41;;;26.81;100.00
5574;BME280;2563;52.242;7.956;2022-07-03T08:31:56;100953.03;;;26.94;100.00
5574;BME280;2563;52.242;7.956;2022-07-03T08:34:22;100940.66;;;27.35;100.00
5574;BME280;2563;52.242;7.956;2022-07-03T08:36:48;100944.84;;;27.67;100.00
5574;BME280;2563;52.242;7.956;2022-07-03T08:39:13;100949.03;;;27.99;100.00
5574;BME280;2563;52.242;7.956;2022-07-03T08:41:40;100942.88;;;28.47;100.00
5574;BME280;2563;52.242;7.956;2022-07-03T08:44:08;100942.16;;;28.55;100.00
5574;BME280;2563;52.242;7.956;2022-07-03T08:46:34;100937.91;;;28.99;100.00
5574;BME280;2563;52.242;7.956;2022-07-03T08:49:01;100931.47;;;29.12;100.00
5574;BME280;2563;52.242;7.956;2022-07-03T08:51:27;100941.78;;;29.05;100.00
5574;BME280;2563;52.242;7.956;2022-07-03T08:53:54;100932.59;;;28.99;100.00
5574;BME280;2563;52.242;7.956;2022-07-03T08:56:21;100936.22;;;29.08;100.00
5574;BME280;2563;52.242;7.956;2022-07-03T08:58:47;100928.59;;;29.95;100.00
5574;BME280;2563;52.242;7.956;2022-07-03T09:01:16;100933.09;;;30.20;100.00
5574;BME280;2563;52.242;7.956;2022-07-03T09:03:42;100930.38;;;30.12;100.00
5574;BME280;2563;52.242;7.956;2022-07-03T09:06:07;100932.81;;;30.49;100.00
5574;BME280;2563;52.242;7.956;2022-07-03T09:08:33;100937.88;;;30.35;100.00
5574;BME280;2563;52.242;7.956;2022-07-03T09:10:59;100930.22;;;30.58;100.00
5574;BME280;2563;52.242;7.956;2022-07-03T09:13:24;100924.47;;;30.18;100.00
5574;BME280;2563;52.242;7.956;2022-07-03T09:15:50;100929.22;;;30.67;100.00
5574;BME280;2563;52.242;7.956;2022-07-03T09:18:15;100923.78;;;31.19;100.00
5574;BME280;2563;52.242;7.956;2022-07-03T09:20:41;100930.97;;;31.27;100.00
5574;BME280;2563;52.242;7.956;2022-07-03T09:23:18;100928.31;;;31.35;100.00
5574;BME280;2563;52.242;7.956;2022-07-03T09:25:56;100926.50;;;31.27;99.70
5574;BME280;2563;52.242;7.956;2022-07-03T09:31:11;100926.25;;;31.04;95.83
5574;BME280;2563;52.242;7.956;2022-07-03T09:36:16;100915.19;;;30.83;93.54
5574;BME280;2563;52.242;7.956;2022-07-03T09:38:45;100920.94;;;31.12;93.18
5574;BME280;2563;52.242;7.956;2022-07-03T09:41:11;100915.34;;;31.24;96.17
5574;BME280;2563;52.242;7.956;2022-07-03T09:43:41;100906.44;;;31.66;92.69
5574;BME280;2563;52.242;7.956;2022-07-03T09:46:06;100909.09;;;31.49;83.00
5574;BME280;2563;52.242;7.956;2022-07-03T09:48:37;100909.22;;;31.89;92.54
5574;BME280;2563;52.242;7.956;2022-07-03T09:51:13;100910.56;;;32.17;88.95
5574;BME280;2563;52.242;7.956;2022-07-03T09:53:58;100911.75;;;32.07;89.07
5574;BME280;2563;52.242;7.956;2022-07-03T09:56:26;100919.09;;;32.05;88.03
5574;BME280;2563;52.242;7.956;2022-07-03T09:59:11;100917.38;;;32.20;89.66
5574;BME280;2563;52.242;7.956;2022-07-03T10:01:40;100922.53;;;31.48;85.45
5574;BME280;2563;52.242;7.956;2022-07-03T10:04:21;100911.59;;;31.75;84.44
5574;BME280;2563;52.242;7.956;2022-07-03T10:06:59;100914.75;;;31.95;82.99
5574;BME280;2563;52.242;7.956;2022-07-03T10:09:29;100914.38;;;31.41;86.61
5574;BME280;2563;52.242;7.956;2022-07-03T10:11:57;100913.06;;;31.53;86.97
5574;BME280;2563;52.242;7.956;2022-07-03T10:14:24;100919.06;;;31.55;89.31
5574;BME280;2563;52.242;7.956;2022-07-03T10:16:50;100906.50;;;32.54;92.26
5574;BME280;2563;52.242;7.956;2022-07-03T10:19:20;100904.09;;;32.68;79.62
5574;BME280;2563;52.242;7.956;2022-07-03T10:21:50;100899.91;;;33.36;86.75
5574;BME280;2563;52.242;7.956;2022-07-03T10:24:17;100895.13;;;31.80;85.08
5574;BME280;2563;52.242;7.956;2022-07-03T10:26:43;100907.53;;;30.80;90.91
5574;BME280;2563;52.242;7.956;2022-07-03T10:29:09;100903.59;;;31.75;91.03
5574;BME280;2563;52.242;7.956;2022-07-03T10:31:37;100898.44;;;31.66;86.22
5574;BME280;2563;52.242;7.956;2022-07-03T10:34:03;100903.34;;;31.11;89.38
5574;BME280;2563;52.242;7.956;2022-07-03T10:36:30;100902.88;;;32.22;87.76
5574;BME280;2563;52.242;7.956;2022-07-03T10:38:57;100904.16;;;31.12;85.18
5574;BME280;2563;52.242;7.956;2022-07-03T10:44:14;100899.66;;;31.04;95.64
5574;BME280;2563;52.242;7.956;2022-07-03T10:46:59;100905.44;;;30.57;92.87
5574;BME280;2563;52.242;7.956;2022-07-03T10:49:24;100897.88;;;31.29;95.50
5574;BME280;2563;52.242;7.956;2022-07-03T10:52:03;100905.38;;;31.26;90.68
5574;BME280;2563;52.242;7.956;2022-07-03T11:02:18;100901.91;;;29.42;100.00
5574;BME280;2563;52.242;7.956;2022-07-03T11:05:14;100903.75;;;29.24;100.00
5574;BME280;2563;52.242;7.956;2022-07-03T11:08:06;100903.16;;;28.75;100.00
5574;BME280;2563;52.242;7.956;2022-07-03T11:10:33;100898.13;;;29.27;100.00
5574;BME280;2563;52.242;7.956;2022-07-03T11:13:00;100893.19;;;30.64;100.00
5574;BME280;2563;52.242;7.956;2022-07-03T11:25:46;100887.19;;;30.02;89.88
5574;BME280;2563;52.242;7.956;2022-07-03T11:41:10;100887.59;;;29.35;94.18
5574;BME280;2563;52.242;7.956;2022-07-03T11:43:37;100888.19;;;29.11;99.93
5574;BME280;2563;52.242;7.956;2022-07-03T11:46:04;100892.03;;;28.71;100.00
5574;BME280;2563;52.242;7.956;2022-07-03T11:48:30;100900.78;;;28.34;100.00
5574;BME280;2563;52.242;7.956;2022-07-03T11:51:00;100889.50;;;29.25;100.00
5574;BME280;2563;52.242;7.956;2022-07-03T11:53:32;100879.59;;;31.18;100.00
5574;BME280;2563;52.242;7.956;2022-07-03T11:56:04;100874.53;;;32.38;96.63
5574;BME280;2563;52.242;7.956;2022-07-03T11:58:45;100876.19;;;32.47;86.36
5574;BME280;2563;52.242;7.956;2022-07-03T12:01:27;100889.63;;;30.47;92.27
5574;BME280;2563;52.242;7.956;2022-07-03T12:03:53;100889.13;;;29.56;95.79
5574;BME280;2563;52.242;7.956;2022-07-03T12:06:20;100892.66;;;28.55;100.00
5574;BME280;2563;52.242;7.956;2022-07-03T12:08:45;100893.28;;;29.22;100.00
5574;BME280;2563;52.242;7.956;2022-07-03T12:11:13;100879.09;;;31.31;100.00
5574;BME280;2563;52.242;7.956;2022-07-03T12:13:39;100880.13;;;32.04;90.03
5574;BME280;2563;52.242;7.956;2022-07-03T12:16:06;100882.47;;;31.66;93.15
5574;BME280;2563;52.242;7.956;2022-07-03T12:18:49;100872.19;;;31.46;86.67
5574;BME280;2563;52.242;7.956;2022-07-03T12:21:17;100875.69;;;32.43;94.36
5574;BME280;2563;52.242;7.956;2022-07-03T12:23:52;100877.13;;;31.90;89.21
5574;BME280;2563;52.242;7.956;2022-07-03T12:26:34;100878.16;;;31.40;91.14
5574;BME280;2563;52.242;7.956;2022-07-03T12:29:10;100881.75;;;32.13;92.65
5574;BME280;2563;52.242;7.956;2022-07-03T12:31:41;100883.94;;;31.27;89.26
5574;BME280;2563;52.242;7.956;2022-07-03T12:34:07;100889.75;;;31.31;90.87
5574;BME280;2563;52.242;7.956;2022-07-03T12:36:33;100886.91;;;30.73;95.27
5574;BME280;2563;52.242;7.956;2022-07-03T12:38:59;100889.31;;;30.24;98.84
5574;BME280;2563;52.242;7.956;2022-07-03T12:41:27;100883.81;;;29.20;100.00
5574;BME280;2563;52.242;7.956;2022-07-03T12:43:54;100885.19;;;29.42;100.00
5574;BME280;2563;52.242;7.956;2022-07-03T12:48:58;100863.13;;;29.77;99.56
5574;BME280;2563;52.242;7.956;2022-07-03T12:51:49;100867.69;;;29.03;100.00
5574;BME280;2563;52.242;7.956;2022-07-03T12:54:36;100869.84;;;28.72;100.00
5574;BME280;2563;52.242;7.956;2022-07-03T12:57:11;100866.47;;;28.52;100.00
5574;BME280;2563;52.242;7.956;2022-07-03T13:00:15;100865.38;;;29.00;100.00
5574;BME280;2563;52.242;7.956;2022-07-03T13:02:48;100876.47;;;29.50;100.00
5574;BME280;2563;52.242;7.956;2022-07-03T13:05:21;100872.00;;;29.50;100.00
5574;BME280;2563;52.242;7.956;2022-07-03T13:07:53;100864.44;;;28.92;100.00
5574;BME280;2563;52.242;7.956;2022-07-03T13:10:21;100872.75;;;29.24;100.00
5574;BME280;2563;52.242;7.956;2022-07-03T13:12:52;100871.13;;;29.85;100.00
5574;BME280;2563;52.242;7.956;2022-07-03T13:15:19;100875.16;;;29.89;100.00
5574;BME280;2563;52.242;7.956;2022-07-03T13:20:20;100884.38;;;30.64;100.00
5574;BME280;2563;52.242;7.956;2022-07-03T13:22:53;100880.44;;;30.76;100.00
5574;BME280;2563;52.242;7.956;2022-07-03T13:25:18;100880.34;;;30.86;100.00
5574;BME280;2563;52.242;7.956;2022-07-03T13:27:44;100872.59;;;31.17;100.00
5574;BME280;2563;52.242;7.956;2022-07-03T13:30:14;100871.59;;;31.18;100.00
5574;BME280;2563;52.242;7.956;2022-07-03T13:32:39;100863.19;;;31.47;100.00
5574;BME280;2563;52.242;7.956;2022-07-03T13:35:05;100871.41;;;32.26;100.00
5574;BME280;2563;52.242;7.956;2022-07-03T13:37:32;100875.47;;;31.65;100.00
5574;BME280;2563;52.242;7.956;2022-07-03T13:39:57;100872.25;;;31.04;100.00
5574;BME280;2563;52.242;7.956;2022-07-03T13:42:23;100882.16;;;29.73;100.00
5574;BME280;2563;52.242;7.956;2022-07-03T13:44:48;100884.94;;;29.35;100.00
5574;BME280;2563;52.242;7.956;2022-07-03T13:47:15;100879.06;;;30.03;100.00
5574;BME280;2563;52.242;7.956;2022-07-03T13:49:41;100895.72;;;30.14;100.00
5574;BME280;2563;52.242;7.956;2022-07-03T13:52:06;100900.31;;;28.86;100.00
5574;BME280;2563;52.242;7.956;2022-07-03T13:54:32;100895.97;;;27.81;100.00
5574;BME280;2563;52.242;7.956;2022-07-03T13:56:57;100900.16;;;27.74;100.00
5574;BME280;2563;52.242;7.956;2022-07-03T13:59:22;100894.66;;;28.99;100.00
5574;BME280;2563;52.242;7.956;2022-07-03T14:01:48;100887.06;;;30.11;100.00
5574;BME280;2563;52.242;7.956;2022-07-03T14:04:13;100892.25;;;29.69;100.00
5574;BME280;2563;52.242;7.956;2022-07-03T14:06:39;100882.97;;;30.17;100.00
5574;BME280;2563;52.242;7.956;2022-07-03T14:09:04;100884.44;;;29.67;100.00
5574;BME280;2563;52.242;7.956;2022-07-03T14:11:30;100891.59;;;28.76;100.00
5574;BME280;2563;52.242;7.956;2022-07-03T14:13:55;100883.13;;;29.89;100.00
5574;BME280;2563;52.242;7.956;2022-07-03T14:16:20;100884.41;;;30.29;100.00
5574;BME280;2563;52.242;7.956;2022-07-03T14:18:46;100887.34;;;29.11;100.00
5574;BME280;2563;52.242;7.956;2022-07-03T14:21:12;100896.03;;;29.48;100.00
5574;BME280;2563;52.242;7.956;2022-07-03T14:23:37;100888.66;;;30.48;100.00
5574;BME280;2563;52.242;7.956;2022-07-03T14:26:03;100893.13;;;30.90;100.00
5574;BME280;2563;52.242;7.956;2022-07-03T14:28:28;100886.38;;;30.27;98.07
5574;BME280;2563;52.242;7.956;2022-07-03T14:31:12;100893.34;;;28.85;99.91
5574;BME280;2563;52.242;7.956;2022-07-03T14:33:53;100893.34;;;28.85;100.00